Time;durP1;ratioP1;P1;durP2;ratioP2;P2;SDS_P1;SDS_P2;PMS_P1;PMS_P2;Temp;Humidity;BMP_temperature;BMP_pressure;BME280_temperature;BME280_humidity;BME280_pressure;Samples;Min_cycle;Max_cycle;Signal;HPM_P1;HPM_P2
2023/05/21 00:00:10;;;;;;;1.10;1.10;;;;;;;;;;5019911;28;20092;-75
2023/05/21 00:02:36;;;;;;;1.30;1.20;;;;;;;;;;5020646;28;20051;-75
2023/05/21 00:05:02;;;;;;;1.58;1.40;;;;;;;;;;5036630;28;20025;-75
2023/05/21 00:07:27;;;;;;;3.58;1.30;;;;;;;;;;5020137;28;20025;-75
2023/05/21 00:09:52;;;;;;;1.52;1.42;;;;;;;;;;5054144;28;20113;-75
2023/05/21 00:12:18;;;;;;;1.40;1.30;;;;;;;;;;5036761;28;20079;-75
2023/05/21 00:14:43;;;;;;;1.75;1.30;;;;;;;;;;5019698;28;20064;-74
2023/05/21 00:17:08;;;;;;;1.23;1.13;;;;;;;;;;5036175;28;20033;-74
2023/05/21 00:19:34;;;;;;;1.23;1.20;;;;;;;;;;5036404;28;20033;-76
2023/05/21 00:22:03;;;;;;;1.50;1.25;;;;;;;;;;5036642;28;20433;-76
2023/05/21 00:24:28;;;;;;;4.15;1.40;;;;;;;;;;5036099;28;20155;-75
2023/05/21 00:26:54;;;;;;;1.50;1.30;;;;;;;;;;5036736;28;20502;-75
2023/05/21 00:29:20;;;;;;;3.47;1.25;;;;;;;;;;5036006;28;20545;-75
2023/05/21 00:31:45;;;;;;;1.48;1.38;;;;;;;;;;5036585;28;20032;-75
2023/05/21 00:34:12;;;;;;;1.50;1.40;;;;;;;;;;5019715;28;20036;-75
2023/05/21 00:36:39;;;;;;;1.40;1.30;;;;;;;;;;5020422;28;20021;-75
2023/05/21 00:39:05;;;;;;;2.42;1.52;;;;;;;;;;5035943;28;20028;-75
2023/05/21 00:41:30;;;;;;;1.77;1.35;;;;;;;;;;5019463;28;20491;-75
2023/05/21 00:43:59;;;;;;;2.35;1.50;;;;;;;;;;5035886;28;20029;-75
2023/05/21 00:46:27;;;;;;;1.70;1.30;;;;;;;;;;5053526;28;20024;-75
2023/05/21 00:48:52;;;;;;;1.75;1.40;;;;;;;;;;5036203;28;20454;-75
2023/05/21 00:51:20;;;;;;;2.97;1.35;;;;;;;;;;5053795;28;20033;-75
2023/05/21 00:53:50;;;;;;;1.50;1.40;;;;;;;;;;5019563;28;20476;-75
2023/05/21 00:56:15;;;;;;;1.35;1.17;;;;;;;;;;5019953;28;20032;-75
2023/05/21 00:58:41;;;;;;;2.25;1.50;;;;;;;;;;5035678;28;20033;-75
2023/05/21 01:01:12;;;;;;;1.50;1.40;;;;;;;;;;5053739;28;20352;-75
2023/05/21 01:03:37;;;;;;;1.40;1.30;;;;;;;;;;5037018;28;20460;-75
2023/05/21 01:06:08;;;;;;;2.72;1.50;;;;;;;;;;5035415;28;20091;-75
2023/05/21 01:08:35;;;;;;;1.48;1.20;;;;;;;;;;5053271;28;20035;-75
2023/05/21 01:11:01;;;;;;;1.65;1.30;;;;;;;;;;5053757;28;20123;-76
2023/05/21 01:13:26;;;;;;;1.63;1.40;;;;;;;;;;5018898;28;20024;-75
2023/05/21 01:15:52;;;;;;;1.48;1.38;;;;;;;;;;5035228;28;20029;-75
2023/05/21 01:18:18;;;;;;;2.05;1.40;;;;;;;;;;5035483;28;20055;-75
2023/05/21 01:20:46;;;;;;;1.55;1.25;;;;;;;;;;5018856;28;20032;-75
2023/05/21 01:23:15;;;;;;;3.00;1.65;;;;;;;;;;5035591;28;20484;-75
2023/05/21 01:25:41;;;;;;;1.55;1.40;;;;;;;;;;5035293;28;20103;-75
2023/05/21 01:28:06;;;;;;;1.88;1.50;;;;;;;;;;5018635;28;20060;-75
2023/05/21 01:30:32;;;;;;;1.95;1.70;;;;;;;;;;5018770;28;20036;-76
2023/05/21 01:33:00;;;;;;;2.42;1.48;;;;;;;;;;5035116;28;20452;-73
2023/05/21 01:35:30;;;;;;;1.67;1.50;;;;;;;;;;5034980;28;20064;-76
2023/05/21 01:38:08;;;;;;;1.90;1.55;;;;;;;;;;5018707;28;20496;-76
2023/05/21 01:40:37;;;;;;;1.90;1.50;;;;;;;;;;5034913;28;20078;-75
2023/05/21 01:43:05;;;;;;;6.60;1.40;;;;;;;;;;5052840;28;20021;-76
2023/05/21 01:45:31;;;;;;;3.25;1.58;;;;;;;;;;5035103;28;20025;-75
2023/05/21 01:47:57;;;;;;;1.50;1.40;;;;;;;;;;5035290;28;20442;-75
2023/05/21 01:50:23;;;;;;;1.85;1.48;;;;;;;;;;5034919;28;20025;-75
2023/05/21 01:52:51;;;;;;;1.48;1.38;;;;;;;;;;5035391;28;20021;-75
2023/05/21 01:55:18;;;;;;;1.55;1.45;;;;;;;;;;5035092;28;20078;-75
2023/05/21 01:57:43;;;;;;;1.33;1.23;;;;;;;;;;5035165;28;20471;-75
2023/05/21 02:00:09;;;;;;;1.52;1.40;;;;;;;;;;5052663;28;20053;-75
2023/05/21 02:02:35;;;;;;;1.50;1.40;;;;;;;;;;5018328;28;20057;-75
2023/05/21 02:05:00;;;;;;;1.50;1.40;;;;;;;;;;5034905;28;20045;-75
2023/05/21 02:07:27;;;;;;;1.52;1.42;;;;;;;;;;5034837;28;20125;-75
2023/05/21 02:09:53;;;;;;;1.63;1.52;;;;;;;;;;5053139;28;20025;-75
2023/05/21 02:12:18;;;;;;;1.88;1.52;;;;;;;;;;5002650;28;20043;-75
2023/05/21 02:14:49;;;;;;;1.65;1.55;;;;;;;;;;5038694;28;20056;-75
2023/05/21 02:17:16;;;;;;;1.77;1.52;;;;;;;;;;5056731;28;20099;-75
2023/05/21 02:19:43;;;;;;;2.13;1.70;;;;;;;;;;5038513;28;20035;-75
2023/05/21 02:22:09;;;;;;;1.50;1.40;;;;;;;;;;5038894;28;20035;-75
2023/05/21 02:24:35;;;;;;;2.15;1.55;;;;;;;;;;5022283;28;20396;-75
2023/05/21 02:27:01;;;;;;;2.22;1.70;;;;;;;;;;5038478;28;20029;-76
2023/05/21 02:29:27;;;;;;;1.80;1.70;;;;;;;;;;5038776;28;20025;-75
2023/05/21 02:31:52;;;;;;;3.00;1.63;;;;;;;;;;5056891;28;20032;-75
2023/05/21 02:34:19;;;;;;;1.50;1.40;;;;;;;;;;5038533;28;20039;-76
2023/05/21 02:36:47;;;;;;;2.63;1.50;;;;;;;;;;5022234;28;20025;-75
2023/05/21 02:39:13;;;;;;;2.35;1.58;;;;;;;;;;5056017;28;20503;-74
2023/05/21 02:41:38;;;;;;;2.85;1.52;;;;;;;;;;5055864;28;20403;-75
2023/05/21 02:44:04;;;;;;;1.73;1.52;;;;;;;;;;5021427;28;20120;-75
2023/05/21 02:46:29;;;;;;;3.88;1.70;;;;;;;;;;5056048;28;20547;-75
2023/05/21 02:48:55;;;;;;;2.15;1.60;;;;;;;;;;5038269;28;20033;-75
2023/05/21 02:51:20;;;;;;;1.55;1.45;;;;;;;;;;5038263;28;20487;-75
2023/05/21 02:53:45;;;;;;;2.08;1.45;;;;;;;;;;5055716;28;20075;-76
2023/05/21 02:56:11;;;;;;;2.58;1.77;;;;;;;;;;5021376;28;20452;-74
2023/05/21 02:58:36;;;;;;;4.03;1.63;;;;;;;;;;5038390;28;20029;-75
2023/05/21 03:01:02;;;;;;;1.90;1.52;;;;;;;;;;5037602;28;20049;-73
2023/05/21 03:03:27;;;;;;;3.85;1.73;;;;;;;;;;5021199;28;20033;-75
2023/05/21 03:05:53;;;;;;;1.80;1.60;;;;;;;;;;5037550;28;20064;-75
2023/05/21 03:08:18;;;;;;;1.67;1.50;;;;;;;;;;5021137;28;20033;-75
2023/05/21 03:10:43;;;;;;;1.83;1.50;;;;;;;;;;5055605;28;20472;-76
2023/05/21 03:13:09;;;;;;;2.97;1.50;;;;;;;;;;5055531;28;20025;-75
2023/05/21 03:15:34;;;;;;;1.92;1.50;;;;;;;;;;5037568;28;20025;-73
2023/05/21 03:18:00;;;;;;;4.90;1.60;;;;;;;;;;5037712;28;20056;-73
2023/05/21 03:20:27;;;;;;;4.13;1.60;;;;;;;;;;5038002;28;20487;-76
2023/05/21 03:22:53;;;;;;;2.25;1.60;;;;;;;;;;5037644;28;20536;-74
2023/05/21 03:25:20;;;;;;;1.85;1.50;;;;;;;;;;5036442;28;20112;-76
2023/05/21 03:27:46;;;;;;;1.92;1.67;;;;;;;;;;5054972;28;20480;-76
2023/05/21 03:30:12;;;;;;;2.83;1.80;;;;;;;;;;5054887;28;20028;-75
2023/05/21 03:32:37;;;;;;;2.63;1.67;;;;;;;;;;5021087;28;20029;-75
2023/05/21 03:35:04;;;;;;;2.20;1.45;;;;;;;;;;5036885;28;20033;-74
2023/05/21 03:37:29;;;;;;;2.20;1.63;;;;;;;;;;5054886;28;20025;-74
2023/05/21 03:39:55;;;;;;;1.90;1.60;;;;;;;;;;5037316;28;20039;-73
2023/05/21 03:42:20;;;;;;;1.75;1.60;;;;;;;;;;5020235;28;20040;-73
2023/05/21 03:44:46;;;;;;;2.78;1.67;;;;;;;;;;5037143;28;20071;-75
2023/05/21 03:47:11;;;;;;;1.92;1.60;;;;;;;;;;5054927;28;20025;-76
2023/05/21 03:49:36;;;;;;;1.58;1.48;;;;;;;;;;5054937;28;20029;-75
2023/05/21 03:52:02;;;;;;;2.53;1.45;;;;;;;;;;5054443;28;20033;-75
2023/05/21 03:54:27;;;;;;;2.33;1.80;;;;;;;;;;5054415;28;20033;-75
2023/05/21 03:56:52;;;;;;;1.95;1.60;;;;;;;;;;5036597;28;20471;-75
2023/05/21 03:59:18;;;;;;;2.60;1.83;;;;;;;;;;5036699;28;20112;-75
2023/05/21 04:01:44;;;;;;;3.25;1.77;;;;;;;;;;5036299;28;20052;-75
2023/05/21 04:04:09;;;;;;;1.88;1.50;;;;;;;;;;5036593;28;20041;-75
2023/05/21 04:06:35;;;;;;;2.33;1.65;;;;;;;;;;5054211;28;20040;-75
2023/05/21 04:09:01;;;;;;;3.92;1.40;;;;;;;;;;5054550;28;20122;-75
2023/05/21 04:11:26;;;;;;;2.03;1.60;;;;;;;;;;5036502;28;20388;-75
2023/05/21 04:13:51;;;;;;;1.75;1.40;;;;;;;;;;5036348;28;20082;-75
2023/05/21 04:16:17;;;;;;;1.55;1.42;;;;;;;;;;5054333;28;20049;-75
2023/05/21 04:18:46;;;;;;;3.42;1.60;;;;;;;;;;5036495;28;20025;-75
2023/05/21 04:21:11;;;;;;;4.15;1.50;;;;;;;;;;5036696;28;20472;-75
2023/05/21 04:23:37;;;;;;;1.92;1.60;;;;;;;;;;5054389;28;20039;-75
2023/05/21 04:26:03;;;;;;;1.92;1.58;;;;;;;;;;5036234;28;20079;-76
2023/05/21 04:28:29;;;;;;;1.60;1.50;;;;;;;;;;5054649;28;20024;-75
2023/05/21 04:30:55;;;;;;;2.65;1.70;;;;;;;;;;5036334;28;20025;-76
2023/05/21 04:33:21;;;;;;;3.08;1.73;;;;;;;;;;5036544;28;20056;-75
2023/05/21 04:35:49;;;;;;;1.88;1.60;;;;;;;;;;5036157;28;20049;-75
2023/05/21 04:38:18;;;;;;;2.33;1.45;;;;;;;;;;5019635;28;20392;-75
2023/05/21 04:40:52;;;;;;;2.30;1.60;;;;;;;;;;5054160;28;20063;-75
2023/05/21 04:43:24;;;;;;;3.38;1.73;;;;;;;;;;5053895;28;20035;-75
2023/05/21 04:45:50;;;;;;;2.08;1.58;;;;;;;;;;5037017;28;20119;-75
2023/05/21 04:48:16;;;;;;;2.47;1.48;;;;;;;;;;5019634;28;20032;-75
2023/05/21 04:50:42;;;;;;;2.40;1.60;;;;;;;;;;5019659;28;20032;-75
2023/05/21 04:53:07;;;;;;;1.52;1.42;;;;;;;;;;5019659;28;20029;-75
2023/05/21 04:55:38;;;;;;;2.10;1.90;;;;;;;;;;5019359;28;20040;-75
2023/05/21 04:58:04;;;;;;;2.17;1.60;;;;;;;;;;5036766;28;20025;-75
2023/05/21 05:00:29;;;;;;;1.67;1.45;;;;;;;;;;5054066;28;20498;-75
2023/05/21 05:02:54;;;;;;;3.20;1.60;;;;;;;;;;5035589;28;20064;-75
2023/05/21 05:05:20;;;;;;;2.28;1.60;;;;;;;;;;5035833;28;20425;-75
2023/05/21 05:07:45;;;;;;;1.63;1.52;;;;;;;;;;5019128;28;20033;-75
2023/05/21 05:10:11;;;;;;;1.92;1.50;;;;;;;;;;5035642;28;20119;-75
2023/05/21 05:12:36;;;;;;;4.72;1.83;;;;;;;;;;5053651;28;20021;-75
2023/05/21 05:15:01;;;;;;;1.92;1.60;;;;;;;;;;5035597;28;20059;-75
2023/05/21 05:17:27;;;;;;;2.20;1.50;;;;;;;;;;5053383;28;20487;-75
2023/05/21 05:19:52;;;;;;;2.20;1.73;;;;;;;;;;5035633;28;20021;-75
2023/05/21 05:22:17;;;;;;;1.65;1.55;;;;;;;;;;5019126;28;20037;-75
2023/05/21 05:24:43;;;;;;;2.30;1.52;;;;;;;;;;5053552;28;20040;-75
2023/05/21 05:27:08;;;;;;;2.63;1.50;;;;;;;;;;5053307;28;20480;-75
2023/05/21 05:29:33;;;;;;;1.83;1.65;;;;;;;;;;5018924;28;20190;-75
2023/05/21 05:31:59;;;;;;;2.20;1.65;;;;;;;;;;5053886;28;20047;-77
2023/05/21 05:34:24;;;;;;;3.28;2.00;;;;;;;;;;5053357;28;20025;-76
2023/05/21 05:36:50;;;;;;;2.60;1.58;;;;;;;;;;5053473;28;20029;-77
2023/05/21 05:39:15;;;;;;;2.70;1.60;;;;;;;;;;5034384;28;20434;-77
2023/05/21 05:41:41;;;;;;;4.85;1.98;;;;;;;;;;5052512;28;20033;-77
2023/05/21 05:44:06;;;;;;;3.63;2.55;;;;;;;;;;5052604;28;20021;-76
2023/05/21 05:46:31;;;;;;;3.92;1.95;;;;;;;;;;5034964;28;20078;-77
2023/05/21 05:48:57;;;;;;;4.63;2.10;;;;;;;;;;5038470;28;20029;-74
2023/05/21 05:51:22;;;;;;;5.05;2.30;;;;;;;;;;5039181;28;20029;-74
2023/05/21 05:53:48;;;;;;;3.70;2.50;;;;;;;;;;5039425;28;20033;-75
2023/05/21 05:56:14;;;;;;;4.57;2.40;;;;;;;;;;5057977;28;20029;-77
2023/05/21 05:58:40;;;;;;;3.40;2.20;;;;;;;;;;5057741;28;20541;-75
2023/05/21 06:01:05;;;;;;;4.10;2.33;;;;;;;;;;5022858;28;20139;-75
2023/05/21 06:03:31;;;;;;;3.55;2.15;;;;;;;;;;5039318;28;20029;-75
2023/05/21 06:05:56;;;;;;;3.90;2.30;;;;;;;;;;5039456;28;20029;-77
2023/05/21 06:08:22;;;;;;;3.53;2.05;;;;;;;;;;5021826;28;20482;-75
2023/05/21 06:10:47;;;;;;;2.50;1.85;;;;;;;;;;5038969;28;20041;-77
2023/05/21 06:13:12;;;;;;;4.85;2.30;;;;;;;;;;5038755;28;20381;-76
2023/05/21 06:15:41;;;;;;;4.18;2.10;;;;;;;;;;5056610;28;20060;-76
2023/05/21 06:18:07;;;;;;;4.13;1.90;;;;;;;;;;5038644;28;20039;-77
2023/05/21 06:20:32;;;;;;;3.65;1.88;;;;;;;;;;5038693;28;20104;-77
2023/05/21 06:22:58;;;;;;;3.53;1.83;;;;;;;;;;5038190;28;20037;-75
2023/05/21 06:25:24;;;;;;;2.90;2.20;;;;;;;;;;5038069;28;20044;-77
2023/05/21 06:27:50;;;;;;;2.35;1.75;;;;;;;;;;5038002;28;20025;-76
2023/05/21 06:30:15;;;;;;;3.90;1.92;;;;;;;;;;5035266;28;20078;-76
2023/05/21 06:32:42;;;;;;;1.92;1.65;;;;;;;;;;5050094;28;20021;-77
2023/05/21 06:35:07;;;;;;;4.35;1.85;;;;;;;;;;5037874;28;20021;-75
2023/05/21 06:37:33;;;;;;;3.03;2.13;;;;;;;;;;5037704;28;20021;-76
2023/05/21 06:39:58;;;;;;;6.22;1.85;;;;;;;;;;5055422;28;20064;-77
2023/05/21 06:42:24;;;;;;;8.93;2.00;;;;;;;;;;5021415;28;20139;-77
2023/05/21 06:44:49;;;;;;;3.45;1.70;;;;;;;;;;5038000;28;20040;-77
2023/05/21 06:47:15;;;;;;;2.00;1.73;;;;;;;;;;5037494;28;20029;-77
2023/05/21 06:49:40;;;;;;;1.67;1.50;;;;;;;;;;5037623;28;20033;-77
2023/05/21 06:52:06;;;;;;;1.83;1.73;;;;;;;;;;5055125;28;20036;-74
2023/05/21 06:54:31;;;;;;;6.35;1.88;;;;;;;;;;5055188;28;20035;-76
2023/05/21 06:56:57;;;;;;;2.58;1.90;;;;;;;;;;5055179;28;20032;-77
2023/05/21 06:59:22;;;;;;;2.08;1.67;;;;;;;;;;5037105;28;20025;-77
2023/05/21 07:01:47;;;;;;;2.78;1.75;;;;;;;;;;5037048;28;20389;-74
2023/05/21 07:04:13;;;;;;;8.57;2.22;;;;;;;;;;5055217;28;20086;-77
2023/05/21 07:06:38;;;;;;;3.40;1.90;;;;;;;;;;5020738;28;20537;-76
2023/05/21 07:09:07;;;;;;;1.60;1.50;;;;;;;;;;5037368;28;20032;-76
2023/05/21 07:11:33;;;;;;;2.65;2.20;;;;;;;;;;5055114;28;20025;-76
2023/05/21 07:14:02;;;;;;;1.65;1.50;;;;;;;;;;5055063;28;20491;-76
2023/05/21 07:16:28;;;;;;;3.85;1.90;;;;;;;;;;5037806;28;20021;-76
2023/05/21 07:18:53;;;;;;;2.58;1.55;;;;;;;;;;5037299;28;20029;-76
2023/05/21 07:21:19;;;;;;;2.40;1.90;;;;;;;;;;5055060;28;20035;-75
2023/05/21 07:23:44;;;;;;;2.40;1.90;;;;;;;;;;5037406;28;20029;-75
2023/05/21 07:26:10;;;;;;;4.60;2.25;;;;;;;;;;5054745;28;20029;-76
2023/05/21 07:28:36;;;;;;;5.18;2.10;;;;;;;;;;5037234;28;20472;-76
2023/05/21 07:31:01;;;;;;;11.90;2.28;;;;;;;;;;5036757;28;20041;-77
2023/05/21 07:33:26;;;;;;;18.40;2.80;;;;;;;;;;5036760;28;20031;-76
2023/05/21 07:35:52;;;;;;;7.88;2.80;;;;;;;;;;5020317;28;20502;-77
2023/05/21 07:38:17;;;;;;;12.45;2.63;;;;;;;;;;5036739;28;20040;-78
2023/05/21 07:40:43;;;;;;;10.23;2.78;;;;;;;;;;5036701;28;20101;-78
2023/05/21 07:43:08;;;;;;;20.58;4.90;;;;;;;;;;5036450;28;20476;-77
2023/05/21 07:45:33;;;;;;;20.63;5.38;;;;;;;;;;5036224;28;20029;-78
2023/05/21 07:47:59;;;;;;;15.77;5.00;;;;;;;;;;5036001;28;20031;-78
2023/05/21 07:50:24;;;;;;;20.77;5.55;;;;;;;;;;5035968;28;20032;-77
2023/05/21 07:52:50;;;;;;;16.90;5.85;;;;;;;;;;5036062;28;20107;-78
2023/05/21 07:55:15;;;;;;;17.50;4.90;;;;;;;;;;5053602;28;20028;-78
2023/05/21 07:57:40;;;;;;;19.10;5.25;;;;;;;;;;5053720;28;20033;-77
2023/05/21 08:00:11;;;;;;;16.17;4.90;;;;;;;;;;5034546;28;20025;-78
2023/05/21 08:02:37;;;;;;;15.77;4.60;;;;;;;;;;5047204;28;20470;-77
2023/05/21 08:05:02;;;;;;;15.55;4.40;;;;;;;;;;5053465;28;20028;-77
2023/05/21 08:07:28;;;;;;;8.70;3.45;;;;;;;;;;5019198;28;20503;-76
2023/05/21 08:09:53;;;;;;;12.63;4.38;;;;;;;;;;5034845;28;20032;-77
2023/05/21 08:12:18;;;;;;;9.90;3.70;;;;;;;;;;5035596;28;20086;-76
2023/05/21 08:14:44;;;;;;;13.90;4.20;;;;;;;;;;5035399;28;20036;-75
2023/05/21 08:17:12;;;;;;;11.32;3.50;;;;;;;;;;5053203;28;20029;-76
2023/05/21 08:19:38;;;;;;;8.30;3.33;;;;;;;;;;5019350;28;20025;-79
2023/05/21 08:22:05;;;;;;;11.40;3.13;;;;;;;;;;5053153;28;20476;-77
2023/05/21 08:24:31;;;;;;;7.82;3.08;;;;;;;;;;5053110;28;20551;-76
2023/05/21 08:26:56;;;;;;;8.05;3.03;;;;;;;;;;5052972;28;20155;-78
2023/05/21 08:29:22;;;;;;;12.10;2.95;;;;;;;;;;5053039;28;20095;-79
2023/05/21 08:31:47;;;;;;;5.35;2.63;;;;;;;;;;5033316;28;20028;-77
2023/05/21 08:34:12;;;;;;;7.95;3.25;;;;;;;;;;5035041;28;20052;-77
2023/05/21 08:36:41;;;;;;;11.15;3.00;;;;;;;;;;5035077;28;20024;-77
2023/05/21 08:39:07;;;;;;;7.25;2.67;;;;;;;;;;5035733;28;20108;-77
2023/05/21 08:41:34;;;;;;;8.25;3.03;;;;;;;;;;5018497;28;20622;-76
2023/05/21 08:44:01;;;;;;;3.70;2.33;;;;;;;;;;5035062;28;20033;-76
2023/05/21 08:46:31;;;;;;;7.93;2.67;;;;;;;;;;5034820;28;20428;-76
2023/05/21 08:48:58;;;;;;;6.05;3.10;;;;;;;;;;5034689;28;20024;-76
2023/05/21 08:51:23;;;;;;;4.18;2.55;;;;;;;;;;5018344;28;20052;-76
2023/05/21 08:53:50;;;;;;;8.02;2.70;;;;;;;;;;5052434;28;20476;-76
2023/05/21 08:56:20;;;;;;;7.75;2.63;;;;;;;;;;5034822;28;20381;-76
2023/05/21 08:58:45;;;;;;;10.02;2.92;;;;;;;;;;5018088;28;20507;-75
2023/05/21 09:01:11;;;;;;;14.93;3.35;;;;;;;;;;5033902;28;20057;-75
2023/05/21 09:03:39;;;;;;;3.70;2.47;;;;;;;;;;5033726;28;20028;-75
2023/05/21 09:06:05;;;;;;;4.55;2.40;;;;;;;;;;5034697;28;20523;-77
2023/05/21 09:08:31;;;;;;;5.80;2.30;;;;;;;;;;5052530;28;20033;-75
2023/05/21 09:10:57;;;;;;;5.97;2.35;;;;;;;;;;5034460;28;20060;-75
2023/05/21 09:13:24;;;;;;;4.93;2.80;;;;;;;;;;5034642;28;20071;-75
2023/05/21 09:15:50;;;;;;;6.13;2.70;;;;;;;;;;5052612;28;20116;-76
2023/05/21 09:18:16;;;;;;;3.67;2.40;;;;;;;;;;5034762;28;20049;-75
2023/05/21 09:20:42;;;;;;;5.32;2.38;;;;;;;;;;5034806;28;20071;-76
2023/05/21 09:23:16;;;;;;;4.22;2.72;;;;;;;;;;5018360;28;20025;-75
2023/05/21 09:25:45;;;;;;;5.05;2.65;;;;;;;;;;5019312;28;20506;-75
2023/05/21 09:28:12;;;;;;;3.20;2.22;;;;;;;;;;5034434;28;20037;-75
2023/05/21 09:30:43;;;;;;;3.45;2.40;;;;;;;;;;5034370;28;20036;-74
2023/05/21 09:33:08;;;;;;;3.78;2.45;;;;;;;;;;5050310;28;20025;-76
2023/05/21 09:35:34;;;;;;;10.68;3.10;;;;;;;;;;5035075;28;20098;-76
2023/05/21 09:38:00;;;;;;;26.58;3.70;;;;;;;;;;5034832;28;20036;-74
2023/05/21 09:40:26;;;;;;;9.95;3.13;;;;;;;;;;5052261;28;20048;-74
2023/05/21 09:42:52;;;;;;;10.13;3.28;;;;;;;;;;5052581;28;20452;-74
2023/05/21 09:45:23;;;;;;;9.45;3.33;;;;;;;;;;5018488;28;20028;-75
2023/05/21 09:47:49;;;;;;;7.63;2.75;;;;;;;;;;5034752;28;20427;-76
2023/05/21 09:50:26;;;;;;;4.60;2.90;;;;;;;;;;5034856;28;20025;-75
2023/05/21 09:52:52;;;;;;;7.40;3.08;;;;;;;;;;5018161;28;20028;-75
2023/05/21 09:55:22;;;;;;;9.25;2.60;;;;;;;;;;5018372;28;20029;-75
2023/05/21 09:57:48;;;;;;;7.47;3.08;;;;;;;;;;5018327;28;20028;-75
2023/05/21 10:00:17;;;;;;;6.00;2.90;;;;;;;;;;5034794;28;20035;-75
2023/05/21 10:02:45;;;;;;;6.32;2.58;;;;;;;;;;5052533;28;20048;-75
2023/05/21 10:05:11;;;;;;;4.72;2.83;;;;;;;;;;5018731;28;20028;-75
2023/05/21 10:07:37;;;;;;;4.10;3.00;;;;;;;;;;5018752;28;20039;-77
2023/05/21 10:10:03;;;;;;;8.82;3.33;;;;;;;;;;5035101;28;20032;-76
2023/05/21 10:12:29;;;;;;;7.20;3.05;;;;;;;;;;5052798;28;20400;-76
2023/05/21 10:15:00;;;;;;;8.50;3.30;;;;;;;;;;5034867;28;20487;-76
2023/05/21 10:17:27;;;;;;;5.78;3.10;;;;;;;;;;5018043;28;20025;-76
2023/05/21 10:19:55;;;;;;;6.95;3.40;;;;;;;;;;5016196;28;20136;-76
2023/05/21 10:22:24;;;;;;;6.78;3.08;;;;;;;;;;5034592;28;20021;-75
2023/05/21 10:24:51;;;;;;;4.25;2.78;;;;;;;;;;5034410;28;20029;-76
2023/05/21 10:27:16;;;;;;;6.28;3.22;;;;;;;;;;5034352;28;20033;-76
2023/05/21 10:29:43;;;;;;;8.07;3.17;;;;;;;;;;5017901;28;20159;-75
2023/05/21 10:32:11;;;;;;;5.68;3.30;;;;;;;;;;5034481;28;20033;-75
2023/05/21 10:34:36;;;;;;;3.90;3.00;;;;;;;;;;5036832;28;20037;-75
2023/05/21 10:37:03;;;;;;;7.40;3.10;;;;;;;;;;5055909;28;20036;-75
2023/05/21 10:39:30;;;;;;;4.53;3.20;;;;;;;;;;5039175;28;20108;-75
2023/05/21 10:42:31;;;;;;;4.28;2.90;;;;;;;;;;5056222;28;20021;-75
2023/05/21 10:45:03;;;;;;;3.75;2.88;;;;;;;;;;5038449;28;20067;-75
2023/05/21 10:47:52;;;;;;;6.45;3.20;;;;;;;;;;5056160;28;20075;-76
2023/05/21 10:50:52;;;;;;;4.63;3.35;;;;;;;;;;5038169;28;20021;-75
2023/05/21 10:53:25;;;;;;;6.45;2.60;;;;;;;;;;5056453;28;20062;-76
2023/05/21 10:56:17;;;;;;;8.38;3.55;;;;;;;;;;5039613;28;20396;-75
2023/05/21 10:59:05;;;;;;;6.78;3.20;;;;;;;;;;5038216;28;20032;-75
2023/05/21 11:01:36;;;;;;;4.05;3.10;;;;;;;;;;5049267;28;20049;-76
2023/05/21 11:04:06;;;;;;;4.13;3.33;;;;;;;;;;5036612;28;20033;-76
2023/05/21 11:06:38;;;;;;;4.57;3.40;;;;;;;;;;5037863;28;20098;-74
2023/05/21 11:09:14;;;;;;;5.55;3.17;;;;;;;;;;5038833;28;20029;-76
2023/05/21 11:11:43;;;;;;;5.78;3.22;;;;;;;;;;5038493;28;20029;-76
2023/05/21 11:14:33;;;;;;;4.30;3.50;;;;;;;;;;5039935;28;20021;-75
2023/05/21 11:16:59;;;;;;;3.92;3.50;;;;;;;;;;5037799;28;20025;-76
2023/05/21 11:19:52;;;;;;;5.13;3.33;;;;;;;;;;5038134;28;20074;-75
2023/05/21 11:22:23;;;;;;;4.35;3.40;;;;;;;;;;5006566;28;20495;-76
2023/05/21 11:24:50;;;;;;;5.60;3.67;;;;;;;;;;5037247;28;20024;-76
2023/05/21 11:27:35;;;;;;;4.85;3.78;;;;;;;;;;5037780;28;20021;-76
2023/05/21 11:30:09;;;;;;;3.95;3.50;;;;;;;;;;5020858;28;20036;-76
2023/05/21 11:32:58;;;;;;;5.35;4.22;;;;;;;;;;5021133;28;20489;-76
2023/05/21 11:35:26;;;;;;;4.45;3.60;;;;;;;;;;5022687;28;20050;-76
2023/05/21 11:37:52;;;;;;;4.75;3.40;;;;;;;;;;5028775;28;20044;-76
2023/05/21 11:40:24;;;;;;;4.20;3.67;;;;;;;;;;5026346;28;20082;-76
2023/05/21 11:42:52;;;;;;;5.97;3.83;;;;;;;;;;5053253;28;20032;-77
2023/05/21 11:45:19;;;;;;;6.55;3.78;;;;;;;;;;5034413;28;20115;-76
2023/05/21 11:47:45;;;;;;;4.75;3.90;;;;;;;;;;5021187;28;20033;-76
2023/05/21 11:50:13;;;;;;;5.60;4.00;;;;;;;;;;5020846;28;20570;-75
2023/05/21 11:52:39;;;;;;;4.32;3.70;;;;;;;;;;5057769;28;20107;-75
2023/05/21 11:55:06;;;;;;;4.40;3.70;;;;;;;;;;5037237;28;20032;-75
2023/05/21 11:57:31;;;;;;;3.90;3.40;;;;;;;;;;5021568;28;20029;-75
2023/05/21 11:59:58;;;;;;;4.95;3.90;;;;;;;;;;5036772;28;20028;-76
2023/05/21 12:02:27;;;;;;;4.00;3.60;;;;;;;;;;5020818;28;20102;-75
2023/05/21 12:04:52;;;;;;;5.57;4.03;;;;;;;;;;5037187;28;20469;-75
2023/05/21 12:07:37;;;;;;;4.47;4.07;;;;;;;;;;5037990;28;20043;-75
2023/05/21 12:10:14;;;;;;;10.38;5.00;;;;;;;;;;5023169;28;20048;-76
2023/05/21 12:12:39;;;;;;;8.23;4.13;;;;;;;;;;5020778;28;20100;-76
2023/05/21 12:15:06;;;;;;;6.60;4.28;;;;;;;;;;5020134;28;20460;-76
2023/05/21 12:17:31;;;;;;;5.90;4.00;;;;;;;;;;5035851;28;20395;-77
2023/05/21 12:19:57;;;;;;;8.45;4.93;;;;;;;;;;5019011;28;20043;-77
2023/05/21 12:22:24;;;;;;;6.85;4.72;;;;;;;;;;5019811;28;20546;-76
2023/05/21 12:24:49;;;;;;;5.97;4.40;;;;;;;;;;5037723;28;20472;-76
2023/05/21 12:27:16;;;;;;;6.95;4.50;;;;;;;;;;5055533;28;20037;-76
2023/05/21 12:29:44;;;;;;;7.32;4.47;;;;;;;;;;5056954;28;20021;-76
2023/05/21 12:32:14;;;;;;;6.75;4.40;;;;;;;;;;5035261;28;20033;-77
2023/05/21 12:34:47;;;;;;;7.32;4.32;;;;;;;;;;5044229;28;20037;-76
2023/05/21 12:37:25;;;;;;;7.32;4.45;;;;;;;;;;5012679;28;20025;-77
2023/05/21 12:39:53;;;;;;;6.65;4.32;;;;;;;;;;5024472;28;20074;-77
2023/05/21 12:42:26;;;;;;;6.10;4.43;;;;;;;;;;5025600;28;20463;-77
2023/05/21 12:44:52;;;;;;;7.57;4.95;;;;;;;;;;5006804;28;20044;-77
2023/05/21 12:47:18;;;;;;;11.35;4.80;;;;;;;;;;5023213;28;20030;-78
2023/05/21 12:49:46;;;;;;;13.25;5.80;;;;;;;;;;5020694;28;20026;-77
2023/05/21 12:52:13;;;;;;;12.95;5.90;;;;;;;;;;5017786;28;20029;-77
2023/05/21 12:54:44;;;;;;;10.90;5.93;;;;;;;;;;5016760;28;20029;-78
2023/05/21 12:57:13;;;;;;;10.70;5.68;;;;;;;;;;5017208;28;20193;-79
2023/05/21 12:59:59;;;;;;;13.32;6.07;;;;;;;;;;5034392;28;20116;-79
2023/05/21 13:02:25;;;;;;;13.63;6.40;;;;;;;;;;5031254;28;20079;-78
2023/05/21 13:05:01;;;;;;;14.40;6.10;;;;;;;;;;5054205;28;20033;-78
2023/05/21 13:07:28;;;;;;;18.17;6.28;;;;;;;;;;5019256;28;20475;-78
2023/05/21 13:09:54;;;;;;;15.57;6.35;;;;;;;;;;5036490;28;20024;-78
2023/05/21 13:12:21;;;;;;;15.27;6.13;;;;;;;;;;5036005;28;20115;-78
2023/05/21 13:14:51;;;;;;;14.00;5.80;;;;;;;;;;5036150;28;20033;-78
2023/05/21 13:17:19;;;;;;;10.35;5.68;;;;;;;;;;5036192;28;20021;-78
2023/05/21 13:20:07;;;;;;;12.40;5.85;;;;;;;;;;5035774;28;20480;-77
2023/05/21 13:22:43;;;;;;;10.02;5.75;;;;;;;;;;5053417;28;20021;-78
2023/05/21 13:25:10;;;;;;;12.32;5.50;;;;;;;;;;5054128;28;20029;-78
2023/05/21 13:27:36;;;;;;;12.75;6.25;;;;;;;;;;5035612;28;20036;-77
2023/05/21 13:30:02;;;;;;;9.73;5.35;;;;;;;;;;5053399;28;20033;-78
2023/05/21 13:32:27;;;;;;;12.25;5.60;;;;;;;;;;5019574;28;20033;-78
2023/05/21 13:34:53;;;;;;;9.35;5.78;;;;;;;;;;5035631;28;20454;-78
2023/05/21 13:37:19;;;;;;;9.73;5.18;;;;;;;;;;5055038;28;20032;-77
2023/05/21 13:39:45;;;;;;;11.25;5.57;;;;;;;;;;5036405;28;20415;-77
2023/05/21 13:42:11;;;;;;;10.20;5.13;;;;;;;;;;5020261;28;20029;-77
2023/05/21 13:44:37;;;;;;;10.52;5.57;;;;;;;;;;5035771;28;20040;-77
2023/05/21 13:47:02;;;;;;;12.38;5.00;;;;;;;;;;5035905;28;20567;-77
2023/05/21 13:49:28;;;;;;;8.88;5.43;;;;;;;;;;5036729;28;20037;-78
2023/05/21 13:51:53;;;;;;;8.48;4.95;;;;;;;;;;5037337;28;20017;-78
2023/05/21 13:54:20;;;;;;;11.27;5.15;;;;;;;;;;5036298;28;20036;-78
2023/05/21 13:56:45;;;;;;;9.43;5.07;;;;;;;;;;5035904;28;20024;-78
2023/05/21 13:59:10;;;;;;;10.32;4.95;;;;;;;;;;5036133;28;20041;-78
2023/05/21 14:01:36;;;;;;;7.07;4.45;;;;;;;;;;5035060;28;20120;-77
2023/05/21 14:04:04;;;;;;;8.65;4.63;;;;;;;;;;5035774;28;20055;-77
2023/05/21 14:06:30;;;;;;;6.43;4.50;;;;;;;;;;5052925;28;20124;-78
2023/05/21 14:08:57;;;;;;;5.95;4.43;;;;;;;;;;5037623;28;20055;-78
2023/05/21 14:11:23;;;;;;;6.75;4.60;;;;;;;;;;5056825;28;20028;-77
2023/05/21 14:13:48;;;;;;;8.52;4.57;;;;;;;;;;5039435;28;20376;-77
2023/05/21 14:16:13;;;;;;;6.20;4.20;;;;;;;;;;5039623;28;20029;-79
2023/05/21 14:18:39;;;;;;;5.13;3.70;;;;;;;;;;5038906;28;20041;-77
2023/05/21 14:21:04;;;;;;;6.63;4.32;;;;;;;;;;5022662;28;20032;-78
2023/05/21 14:23:29;;;;;;;6.15;4.15;;;;;;;;;;5038788;28;20033;-78
2023/05/21 14:25:55;;;;;;;4.93;3.92;;;;;;;;;;5056677;28;20029;-77
2023/05/21 14:28:20;;;;;;;5.25;4.25;;;;;;;;;;5039237;28;20039;-77
2023/05/21 14:30:46;;;;;;;5.10;3.97;;;;;;;;;;5057039;28;20039;-77
2023/05/21 14:33:12;;;;;;;6.32;4.50;;;;;;;;;;5022113;28;20051;-78
2023/05/21 14:35:37;;;;;;;7.20;4.53;;;;;;;;;;5038528;28;20087;-78
2023/05/21 14:38:03;;;;;;;5.15;4.15;;;;;;;;;;5039245;28;20017;-78
2023/05/21 14:40:28;;;;;;;6.72;4.40;;;;;;;;;;5038383;28;20541;-78